createdAt,value
2023-04-10T00:00:19.770Z,5.72
2023-04-10T00:02:24.966Z,7.57
2023-04-10T00:04:29.480Z,6.03
2023-04-10T00:06:33.084Z,6.15
2023-04-10T00:08:36.895Z,5.43
2023-04-10T00:10:40.891Z,6.10
2023-04-10T00:12:48.189Z,7.50
2023-04-10T00:14:51.872Z,6.43
2023-04-10T00:16:56.937Z,6.05
2023-04-10T00:19:00.783Z,6.55
2023-04-10T00:21:05.137Z,7.22
2023-04-10T00:23:08.842Z,6.70
2023-04-10T00:25:12.742Z,5.50
2023-04-10T00:27:16.453Z,5.88
2023-04-10T00:29:20.227Z,7.35
2023-04-10T00:31:23.913Z,6.35
2023-04-10T00:33:28.976Z,7.10
2023-04-10T00:35:32.961Z,7.80
2023-04-10T00:37:36.677Z,7.57
2023-04-10T00:39:40.840Z,7.78
2023-04-10T00:41:44.489Z,7.97
2023-04-10T00:43:48.098Z,6.70
2023-04-10T00:45:51.819Z,6.95
2023-04-10T00:47:55.973Z,5.85
2023-04-10T00:50:01.600Z,7.07
2023-04-10T00:52:05.514Z,7.63
2023-04-10T00:54:10.718Z,8.27
2023-04-10T00:56:14.341Z,6.95
2023-04-10T00:58:17.937Z,7.25
2023-04-10T01:00:21.823Z,7.72
2023-04-10T01:02:26.072Z,6.60
2023-04-10T01:04:31.159Z,7.38
2023-04-10T01:06:53.486Z,8.60
2023-04-10T01:09:02.207Z,6.85
2023-04-10T01:11:08.248Z,6.78
2023-04-10T01:13:14.702Z,6.65
2023-04-10T01:15:19.364Z,6.63
2023-04-10T01:17:24.572Z,7.80
2023-04-10T01:19:34.484Z,7.07
2023-04-10T01:21:39.921Z,7.25
2023-04-10T01:23:48.637Z,6.20
2023-04-10T01:25:55.881Z,7.07
2023-04-10T01:28:07.164Z,7.18
2023-04-10T01:30:14.404Z,7.20
2023-04-10T01:32:19.555Z,7.70
2023-04-10T01:34:26.879Z,7.72
2023-04-10T01:36:34.033Z,7.07
2023-04-10T01:38:38.228Z,7.25
2023-04-10T01:40:48.807Z,6.95
2023-04-10T01:42:57.525Z,6.72
2023-04-10T01:45:01.846Z,7.53
2023-04-10T01:47:08.981Z,6.78
2023-04-10T01:49:13.844Z,6.40
2023-04-10T01:51:17.623Z,6.78
2023-04-10T01:53:22.112Z,5.15
2023-04-10T01:55:27.671Z,6.82
2023-04-10T01:57:32.077Z,7.03
2023-04-10T01:59:36.309Z,6.50
2023-04-10T02:01:40.168Z,6.00
2023-04-10T02:03:45.443Z,5.88
2023-04-10T02:05:56.948Z,6.60
2023-04-10T02:08:04.194Z,7.38
2023-04-10T02:10:14.634Z,6.80
2023-04-10T02:12:18.885Z,6.93
2023-04-10T02:14:24.278Z,6.80
2023-04-10T02:16:28.442Z,6.00
2023-04-10T02:18:33.197Z,6.38
2023-04-10T02:20:38.516Z,6.18
2023-04-10T02:22:43.966Z,7.00
2023-04-10T02:24:47.779Z,6.95
2023-04-10T02:26:52.272Z,7.32
2023-04-10T02:28:55.963Z,7.25
2023-04-10T02:30:59.874Z,8.77
2023-04-10T02:33:03.833Z,8.23
2023-04-10T02:35:07.793Z,7.13
2023-04-10T02:37:12.901Z,7.38
2023-04-10T02:39:16.827Z,10.90
2023-04-10T02:41:20.931Z,6.63
2023-04-10T02:43:24.526Z,5.90
2023-04-10T02:45:28.191Z,7.43
2023-04-10T02:47:32.263Z,6.47
2023-04-10T02:49:36.663Z,6.65
2023-04-10T02:51:40.334Z,7.30
2023-04-10T02:53:45.512Z,6.63
2023-04-10T02:55:49.249Z,6.60
2023-04-10T02:57:53.117Z,5.93
2023-04-10T02:59:58.191Z,6.70
2023-04-10T03:02:01.950Z,7.10
2023-04-10T03:04:05.822Z,6.47
2023-04-10T03:06:11.262Z,6.63
2023-04-10T03:08:14.849Z,6.70
2023-04-10T03:10:20.246Z,7.93
2023-04-10T03:12:23.891Z,6.93
2023-04-10T03:14:27.829Z,7.10
2023-04-10T03:16:31.695Z,7.10
2023-04-10T03:18:35.680Z,6.72
2023-04-10T03:20:39.958Z,6.70
2023-04-10T03:22:43.727Z,7.63
2023-04-10T03:24:47.333Z,6.50
2023-04-10T03:26:52.660Z,6.63
2023-04-10T03:28:56.460Z,8.00
2023-04-10T03:31:00.297Z,6.53
2023-04-10T03:33:04.134Z,6.78
2023-04-10T03:35:08.213Z,7.88
2023-04-10T03:37:12.410Z,6.05
2023-04-10T03:39:15.979Z,6.00
2023-04-10T03:41:19.730Z,7.05
2023-04-10T03:43:24.914Z,6.47
2023-04-10T03:45:28.445Z,6.30
2023-04-10T03:47:32.301Z,7.78
2023-04-10T03:49:36.129Z,6.60
2023-04-10T03:51:39.813Z,7.65
2023-04-10T03:53:43.429Z,6.97
2023-04-10T03:55:47.081Z,6.80
2023-04-10T03:57:51.219Z,6.35
2023-04-10T03:59:56.696Z,7.13
2023-04-10T04:02:00.359Z,7.25
2023-04-10T04:04:04.576Z,6.63
2023-04-10T04:06:08.888Z,7.10
2023-04-10T04:08:14.068Z,6.85
2023-04-10T04:10:17.818Z,6.72
2023-04-10T04:12:21.514Z,6.68
2023-04-10T04:14:25.528Z,6.28
2023-04-10T04:16:30.617Z,8.50
2023-04-10T04:18:34.270Z,6.93
2023-04-10T04:20:38.012Z,6.10
2023-04-10T04:22:41.616Z,7.25
2023-04-10T04:24:45.150Z,7.40
2023-04-10T04:26:48.952Z,6.70
2023-04-10T04:28:52.585Z,7.10
2023-04-10T04:30:56.142Z,7.15
2023-04-10T04:33:01.460Z,8.27
2023-04-10T04:35:05.427Z,8.00
2023-04-10T04:37:09.104Z,8.35
2023-04-10T04:39:12.897Z,7.40
2023-04-10T04:41:19.391Z,8.75
2023-04-10T04:43:24.075Z,8.23
2023-04-10T04:45:27.796Z,7.70
2023-04-10T04:47:31.525Z,7.25
2023-04-10T04:49:40.397Z,8.32
2023-04-10T04:51:44.305Z,8.73
2023-04-10T04:53:48.221Z,8.35
2023-04-10T04:55:52.006Z,6.88
2023-04-10T04:57:55.727Z,7.80
2023-04-10T04:59:59.305Z,7.78
2023-04-10T05:02:03.524Z,7.20
2023-04-10T05:04:07.409Z,7.25
2023-04-10T05:06:12.770Z,7.40
2023-04-10T05:08:16.560Z,8.30
2023-04-10T05:10:20.294Z,9.32
2023-04-10T05:12:25.697Z,8.27
2023-04-10T05:14:30.031Z,7.10
2023-04-10T05:16:33.835Z,9.80
2023-04-10T05:18:37.934Z,8.45
2023-04-10T05:20:41.826Z,8.00
2023-04-10T05:22:46.888Z,8.15
2023-04-10T05:24:51.163Z,9.55
2023-04-10T05:26:54.976Z,9.30
2023-04-10T05:28:58.784Z,11.43
2023-04-10T05:31:02.738Z,9.15
2023-04-10T05:33:06.463Z,10.43
2023-04-10T05:35:10.802Z,10.77
2023-04-10T05:37:14.595Z,10.13
2023-04-10T05:39:20.076Z,10.30
2023-04-10T05:41:23.836Z,9.88
2023-04-10T05:43:27.623Z,9.88
2023-04-10T05:45:31.651Z,9.32
2023-04-10T05:47:35.473Z,7.70
2023-04-10T05:49:39.258Z,7.88
2023-04-10T05:51:43.160Z,7.85
2023-04-10T05:53:47.022Z,6.38
2023-04-10T05:55:54.633Z,6.60
2023-04-10T05:57:58.334Z,6.93
2023-04-10T06:00:02.068Z,7.47
2023-04-10T06:02:06.216Z,7.43
2023-04-10T06:04:10.116Z,6.70
2023-04-10T06:06:17.040Z,6.35
2023-04-10T06:08:21.161Z,6.97
2023-04-10T06:10:24.897Z,7.40
2023-04-10T06:12:30.014Z,6.27
2023-04-10T06:14:33.780Z,6.13
2023-04-10T06:16:37.642Z,6.47
2023-04-10T06:18:41.611Z,6.23
2023-04-10T06:20:45.474Z,6.10
2023-04-10T06:22:49.199Z,6.90
2023-04-10T06:24:53.081Z,7.03
2023-04-10T06:26:57.252Z,5.60
2023-04-10T06:29:02.629Z,6.63
2023-04-10T06:31:08.155Z,6.13
2023-04-10T06:33:12.120Z,7.00
2023-04-10T06:35:16.220Z,6.73
2023-04-10T06:37:19.929Z,5.67
2023-04-10T06:39:23.585Z,6.97
2023-04-10T06:41:27.310Z,6.30
2023-04-10T06:43:32.046Z,6.10
2023-04-10T06:45:37.274Z,6.90
2023-04-10T06:47:41.109Z,6.13
2023-04-10T06:49:44.882Z,5.10
2023-04-10T06:51:48.802Z,5.17
2023-04-10T06:53:52.509Z,5.73
2023-04-10T06:55:56.927Z,5.80
2023-04-10T06:58:00.913Z,5.93
2023-04-10T07:00:04.681Z,6.53
2023-04-10T07:02:09.937Z,5.47
2023-04-10T07:04:17.716Z,5.77
2023-04-10T07:06:21.518Z,5.90
2023-04-10T07:08:25.438Z,5.13
2023-04-10T07:10:29.034Z,4.70
2023-04-10T07:12:32.748Z,5.60
2023-04-10T07:14:36.329Z,5.13
2023-04-10T07:16:40.183Z,4.93
2023-04-10T07:18:47.384Z,4.80
2023-04-10T07:20:54.205Z,6.07
2023-04-10T07:22:57.754Z,6.00
2023-04-10T07:25:01.648Z,5.93
2023-04-10T07:27:05.469Z,5.90
2023-04-10T07:29:09.426Z,5.50
2023-04-10T07:31:14.331Z,6.10
2023-04-10T07:33:18.612Z,7.27
2023-04-10T07:35:23.941Z,6.33
2023-04-10T07:37:27.860Z,6.03
2023-04-10T07:39:31.712Z,4.97
2023-04-10T07:41:38.997Z,5.60
2023-04-10T07:43:42.792Z,5.70
2023-04-10T07:45:47.538Z,6.23
2023-04-10T07:47:51.710Z,4.27
2023-04-10T07:49:55.401Z,5.53
2023-04-10T07:52:00.732Z,5.80
2023-04-10T07:54:05.291Z,5.40
2023-04-10T07:56:10.909Z,5.20
2023-04-10T07:58:14.610Z,5.53
2023-04-10T08:00:18.618Z,4.90
2023-04-10T08:02:22.553Z,4.63
2023-04-10T08:04:26.845Z,5.00
2023-04-10T08:06:31.854Z,4.60
2023-04-10T08:08:37.684Z,4.50
2023-04-10T08:10:41.624Z,4.87
2023-04-10T08:12:45.624Z,5.43
2023-04-10T08:14:51.902Z,5.40
2023-04-10T08:16:55.803Z,5.33
2023-04-10T08:18:59.870Z,4.03
2023-04-10T08:21:03.907Z,5.20
2023-04-10T08:25:33.120Z,4.43
2023-04-10T08:27:36.734Z,3.90
2023-04-10T08:29:40.493Z,3.73
2023-04-10T08:31:44.212Z,3.70
2023-04-10T08:33:48.071Z,4.10
2023-04-10T08:35:52.008Z,3.37
2023-04-10T08:38:11.697Z,3.63
2023-04-10T08:40:17.466Z,3.00
2023-04-10T08:42:22.589Z,2.70
2023-04-10T08:44:26.274Z,4.23
2023-04-10T08:46:31.567Z,2.63
2023-04-10T08:48:38.532Z,3.43
2023-04-10T08:50:44.234Z,3.37
2023-04-10T08:52:49.040Z,3.50
2023-04-10T08:54:53.376Z,3.07
2023-04-10T08:56:58.810Z,2.67
2023-04-10T08:59:05.173Z,2.90
2023-04-10T09:01:09.588Z,3.00
2023-04-10T09:03:15.207Z,3.70
2023-04-10T09:05:19.194Z,3.27
2023-04-10T09:07:23.333Z,3.23
2023-04-10T09:09:27.524Z,3.57
2023-04-10T09:11:46.035Z,3.60
2023-04-10T09:13:49.564Z,3.57
2023-04-10T09:16:01.488Z,2.73
2023-04-10T09:18:05.806Z,3.70
2023-04-10T09:20:22.599Z,2.63
2023-04-10T09:22:31.996Z,4.07
2023-04-10T09:24:38.552Z,3.53
2023-04-10T09:26:42.711Z,3.10
2023-04-10T09:28:57.296Z,3.57
2023-04-10T09:31:02.479Z,3.93
2023-04-10T09:33:22.761Z,4.00
2023-04-10T09:35:27.818Z,3.37
2023-04-10T09:37:33.651Z,4.30
2023-04-10T09:39:41.234Z,3.90
2023-04-10T09:41:51.715Z,4.20
2023-04-10T09:44:07.314Z,4.00
2023-04-10T09:46:13.294Z,3.33
2023-04-10T09:48:18.613Z,3.10
2023-04-10T09:50:38.683Z,3.23
2023-04-10T09:52:43.662Z,3.60
2023-04-10T09:54:47.466Z,4.00
2023-04-10T09:56:51.325Z,3.40
2023-04-10T09:58:56.001Z,4.20
2023-04-10T10:00:59.639Z,3.87
2023-04-10T10:03:05.233Z,3.90
2023-04-10T10:05:10.289Z,3.20
2023-04-10T10:07:14.456Z,3.63
2023-04-10T10:09:18.124Z,3.57
2023-04-10T10:11:23.595Z,3.20
2023-04-10T10:13:30.652Z,3.90
2023-04-10T10:15:38.886Z,3.13
2023-04-10T10:17:47.813Z,4.20
2023-04-10T10:19:56.001Z,4.27
2023-04-10T10:22:02.714Z,4.27
2023-04-10T10:24:09.343Z,4.03
2023-04-10T10:26:13.356Z,4.23
2023-04-10T10:28:17.789Z,5.07
2023-04-10T10:32:29.698Z,5.10
2023-04-10T10:34:33.796Z,4.40
2023-04-10T10:36:42.500Z,4.97
2023-04-10T10:38:50.582Z,4.80
2023-04-10T10:41:03.014Z,4.53
2023-04-10T10:43:10.875Z,4.57
2023-04-10T10:45:17.346Z,4.57
2023-04-10T10:47:22.493Z,4.10
2023-04-10T10:49:51.430Z,4.43
2023-04-10T10:51:56.336Z,4.40
2023-04-10T10:53:59.881Z,3.50
2023-04-10T10:56:18.786Z,4.23
2023-04-10T10:58:42.365Z,4.73
2023-04-10T11:01:04.393Z,4.33
2023-04-10T11:03:38.075Z,4.70
2023-04-10T11:05:52.339Z,4.93
2023-04-10T11:08:12.618Z,5.57
2023-04-10T11:10:16.209Z,5.00
2023-04-10T11:12:21.542Z,4.37
2023-04-10T11:14:25.114Z,3.90
2023-04-10T11:16:44.110Z,4.87
2023-04-10T11:19:13.915Z,4.43
2023-04-10T11:21:19.263Z,4.37
2023-04-10T11:23:24.668Z,5.00
2023-04-10T11:25:47.832Z,4.40
2023-04-10T11:27:53.018Z,4.50
2023-04-10T11:29:56.865Z,4.90
2023-04-10T11:32:01.504Z,5.07
2023-04-10T11:34:06.320Z,5.30
2023-04-10T11:36:10.029Z,4.53
2023-04-10T11:38:14.665Z,5.13
2023-04-10T11:40:19.732Z,4.70
2023-04-10T11:42:23.319Z,4.47
2023-04-10T11:44:32.596Z,4.50
2023-04-10T11:46:38.340Z,4.80
2023-04-10T11:48:42.549Z,4.40
2023-04-10T11:50:46.252Z,5.20
2023-04-10T11:52:49.941Z,5.33
2023-04-10T11:54:53.540Z,4.87
2023-04-10T11:57:01.340Z,5.60
2023-04-10T11:59:07.836Z,5.33
2023-04-10T12:01:14.525Z,5.63
2023-04-10T12:03:18.464Z,5.73
2023-04-10T12:05:22.459Z,6.33
2023-04-10T12:07:27.514Z,5.10
2023-04-10T12:09:31.465Z,4.57
2023-04-10T12:11:35.248Z,5.37
2023-04-10T12:13:40.912Z,4.93
2023-04-10T12:15:44.576Z,5.90
2023-04-10T12:17:48.366Z,5.00
2023-04-10T12:19:52.268Z,4.17
2023-04-10T12:21:56.176Z,5.37
2023-04-10T12:24:00.025Z,4.83
2023-04-10T12:26:14.235Z,5.07
2023-04-10T12:28:21.829Z,5.57
2023-04-10T12:30:26.849Z,5.73
2023-04-10T12:32:30.556Z,5.80
2023-04-10T12:34:34.355Z,5.20
2023-04-10T12:36:37.890Z,4.80
2023-04-10T12:38:42.515Z,4.53
2023-04-10T12:41:01.599Z,5.30
2023-04-10T12:43:05.559Z,5.60
2023-04-10T12:45:10.314Z,5.23
2023-04-10T12:47:15.523Z,6.07
2023-04-10T12:49:19.905Z,5.50
2023-04-10T12:51:38.399Z,6.37
2023-04-10T12:53:46.355Z,5.83
2023-04-10T12:56:03.636Z,6.23
2023-04-10T12:58:18.740Z,5.87
2023-04-10T13:00:22.858Z,6.30
2023-04-10T13:02:29.344Z,6.60
2023-04-10T13:04:33.686Z,7.63
2023-04-10T13:06:44.599Z,7.07
2023-04-10T13:08:48.708Z,5.97
2023-04-10T13:10:52.823Z,6.63
2023-04-10T13:12:56.715Z,5.93
2023-04-10T13:15:00.418Z,6.17
2023-04-10T13:17:04.651Z,5.80
2023-04-10T13:19:10.164Z,6.50
2023-04-10T13:21:18.788Z,7.13
2023-04-10T13:23:22.607Z,6.10
2023-04-10T13:25:27.954Z,7.33
2023-04-10T13:27:31.745Z,6.13
2023-04-10T13:29:35.838Z,5.80
2023-04-10T13:31:39.472Z,6.63
2023-04-10T13:33:43.450Z,6.20
2023-04-10T13:35:48.833Z,6.47
2023-04-10T13:37:54.388Z,7.00
2023-04-10T13:39:57.947Z,5.97
2023-04-10T13:42:02.319Z,5.30
2023-04-10T13:44:06.032Z,5.37
2023-04-10T13:46:10.246Z,6.30
2023-04-10T13:48:16.675Z,6.03
2023-04-10T13:50:21.461Z,5.10
2023-04-10T13:52:26.565Z,6.37
2023-04-10T13:54:30.057Z,5.60
2023-04-10T13:56:33.655Z,4.53
2023-04-10T13:58:37.259Z,5.53
2023-04-10T14:00:41.055Z,5.07
2023-04-10T14:02:44.940Z,5.33
2023-04-10T14:04:48.758Z,5.43
2023-04-10T14:06:57.799Z,5.10
2023-04-10T14:09:02.941Z,5.07
2023-04-10T14:11:06.671Z,5.50
2023-04-10T14:13:11.592Z,4.93
2023-04-10T14:15:15.255Z,5.27
2023-04-10T14:17:18.992Z,5.70
2023-04-10T14:19:22.591Z,6.63
2023-04-10T14:21:26.452Z,5.30
2023-04-10T14:23:30.147Z,4.33
2023-04-10T14:25:35.102Z,5.67
2023-04-10T14:27:38.972Z,5.30
2023-04-10T14:29:53.817Z,4.53
2023-04-10T14:31:58.947Z,4.70
2023-04-10T14:34:02.682Z,5.17
2023-04-10T14:36:10.096Z,5.30
2023-04-10T14:38:15.618Z,5.33
2023-04-10T14:40:19.306Z,5.70
2023-04-10T14:42:24.761Z,5.27
2023-04-10T14:44:28.281Z,5.47
2023-04-10T14:46:31.777Z,6.20
2023-04-10T14:48:35.676Z,5.27
2023-04-10T14:50:39.343Z,6.80
2023-04-10T14:52:42.999Z,6.73
2023-04-10T14:54:46.614Z,6.03
2023-04-10T14:56:50.562Z,6.43
2023-04-10T14:58:55.781Z,5.93
2023-04-10T15:00:59.300Z,5.33
2023-04-10T15:03:05.427Z,5.87
2023-04-10T15:05:09.325Z,5.77
2023-04-10T15:07:12.941Z,5.67
2023-04-10T15:09:16.541Z,6.13
2023-04-10T15:11:23.668Z,6.63
2023-04-10T15:13:27.630Z,5.90
2023-04-10T15:15:32.642Z,5.83
2023-04-10T15:17:36.768Z,6.23
2023-04-10T15:19:40.306Z,6.63
2023-04-10T15:21:43.972Z,6.23
2023-04-10T15:23:47.555Z,6.07
2023-04-10T15:25:51.374Z,6.60
2023-04-10T15:27:56.674Z,5.80
2023-04-10T15:30:00.390Z,6.57
2023-04-10T15:32:05.483Z,5.90
2023-04-10T15:34:09.330Z,5.30
2023-04-10T15:36:13.075Z,5.90
2023-04-10T15:38:16.714Z,5.57
2023-04-10T15:40:20.516Z,4.87
2023-04-10T15:42:24.317Z,6.00
2023-04-10T15:44:27.918Z,5.10
2023-04-10T15:46:32.928Z,6.17
2023-04-10T15:48:38.198Z,6.40
2023-04-10T15:50:43.276Z,4.50
2023-04-10T15:52:47.012Z,5.60
2023-04-10T15:54:51.377Z,5.13
2023-04-10T15:56:55.334Z,5.27
2023-04-10T15:58:58.872Z,6.43
2023-04-10T16:01:03.074Z,6.23
2023-04-10T16:03:07.305Z,6.53
2023-04-10T16:05:12.802Z,5.63
2023-04-10T16:07:16.496Z,5.60
2023-04-10T16:09:25.573Z,5.80
2023-04-10T16:11:31.071Z,5.97
2023-04-10T16:13:35.192Z,5.10
2023-04-10T16:15:39.529Z,6.93
2023-04-10T16:17:43.237Z,5.03
2023-04-10T16:19:50.998Z,5.50
2023-04-10T16:21:57.186Z,5.33
2023-04-10T16:24:01.075Z,5.00
2023-04-10T16:26:04.771Z,5.43
2023-04-10T16:28:09.673Z,6.33
2023-04-10T16:30:13.675Z,7.53
2023-04-10T16:32:17.494Z,6.73
2023-04-10T16:34:21.405Z,6.10
2023-04-10T16:36:25.235Z,6.10
2023-04-10T16:38:30.444Z,6.17
2023-04-10T16:40:34.152Z,5.63
2023-04-10T16:42:37.975Z,6.83
2023-04-10T16:44:41.828Z,7.53
2023-04-10T16:46:46.109Z,5.70
2023-04-10T16:48:49.736Z,6.30
2023-04-10T16:50:53.541Z,6.33
2023-04-10T16:52:57.243Z,5.70
2023-04-10T16:55:02.433Z,6.00
2023-04-10T16:57:06.174Z,5.13
2023-04-10T16:59:10.740Z,5.90
2023-04-10T17:01:16.221Z,6.53
2023-04-10T17:03:19.873Z,5.53
2023-04-10T17:05:23.630Z,6.30
2023-04-10T17:07:27.196Z,6.80
2023-04-10T17:09:32.151Z,6.20
2023-04-10T17:11:37.159Z,5.20
2023-04-10T17:13:40.949Z,5.43
2023-04-10T17:15:44.829Z,6.10
2023-04-10T17:17:48.525Z,8.20
2023-04-10T17:19:52.342Z,9.10
2023-04-10T17:21:55.934Z,7.83
2023-04-10T17:23:59.633Z,7.90
2023-04-10T17:26:05.794Z,7.40
2023-04-10T17:28:10.824Z,8.23
2023-04-10T17:30:15.058Z,7.70
2023-04-10T17:32:18.813Z,6.63
2023-04-10T17:34:22.912Z,7.63
2023-04-10T17:36:26.990Z,7.60
2023-04-10T17:38:30.613Z,9.60
2023-04-10T17:40:34.553Z,11.10
2023-04-10T17:42:38.117Z,8.20
2023-04-10T17:44:43.349Z,9.07
2023-04-10T17:46:46.966Z,9.57
2023-04-10T17:48:50.934Z,8.15
2023-04-10T17:50:54.689Z,8.70
2023-04-10T17:52:58.353Z,7.55
2023-04-10T17:55:02.359Z,7.90
2023-04-10T17:57:06.702Z,7.17
2023-04-10T17:59:10.715Z,6.70
2023-04-10T18:01:22.363Z,7.30
2023-04-10T18:03:26.839Z,8.18
2023-04-10T18:05:30.588Z,8.65
2023-04-10T18:07:34.508Z,9.33
2023-04-10T18:09:38.889Z,13.30
2023-04-10T18:11:42.513Z,23.10
2023-04-10T18:13:46.514Z,21.40
2023-04-10T18:15:50.050Z,15.75
2023-04-10T18:17:55.378Z,13.90
2023-04-10T18:19:59.042Z,11.40
2023-04-10T18:22:02.783Z,8.07
2023-04-10T18:24:06.592Z,6.75
2023-04-10T18:26:10.169Z,7.88
2023-04-10T18:28:15.577Z,8.50
2023-04-10T18:30:20.927Z,8.50
2023-04-10T18:32:24.671Z,7.30
2023-04-10T18:34:29.713Z,7.28
2023-04-10T18:36:33.412Z,7.70
2023-04-10T18:38:37.621Z,6.57
2023-04-10T18:40:41.413Z,7.03
2023-04-10T18:42:48.571Z,9.13
2023-04-10T18:44:53.197Z,10.95
2023-04-10T18:47:03.856Z,9.48
2023-04-10T18:49:08.200Z,8.23
2023-04-10T18:51:13.406Z,8.50
2023-04-10T18:53:17.130Z,9.80
2023-04-10T18:55:23.078Z,9.60
2023-04-10T18:57:26.832Z,11.40
2023-04-10T18:59:30.639Z,11.15
2023-04-10T19:01:35.871Z,11.35
2023-04-10T19:03:40.911Z,11.10
2023-04-10T19:05:44.638Z,13.45
2023-04-10T19:08:00.606Z,10.73
2023-04-10T19:10:07.781Z,12.88
2023-04-10T19:12:12.081Z,11.50
2023-04-10T19:14:15.798Z,11.63
2023-04-10T19:16:20.563Z,13.63
2023-04-10T19:18:25.025Z,10.93
2023-04-10T19:20:50.893Z,12.18
2023-04-10T19:22:53.844Z,16.02
2023-04-10T19:24:57.637Z,17.33
2023-04-10T19:27:05.442Z,19.27
2023-04-10T19:29:09.883Z,14.70
2023-04-10T19:31:13.919Z,16.27
2023-04-10T19:33:18.213Z,16.75
2023-04-10T19:35:23.095Z,21.65
2023-04-10T19:37:26.825Z,19.73
2023-04-10T19:39:32.032Z,20.90
2023-04-10T19:41:37.300Z,20.05
2023-04-10T19:43:40.983Z,22.67
2023-04-10T19:45:45.288Z,17.25
2023-04-10T19:47:52.385Z,12.55
2023-04-10T19:49:56.172Z,13.27
2023-04-10T19:52:01.461Z,12.35
2023-04-10T19:54:05.348Z,12.23
2023-04-10T19:56:10.781Z,13.55
2023-04-10T19:58:35.519Z,18.30
2023-04-10T20:00:38.326Z,16.73
2023-04-10T20:02:42.824Z,12.27
2023-04-10T20:04:48.572Z,12.27
2023-04-10T20:06:52.528Z,13.63
2023-04-10T20:08:56.451Z,12.25
2023-04-10T20:11:00.434Z,11.48
2023-04-10T20:13:05.344Z,10.35
2023-04-10T20:15:10.147Z,11.20
2023-04-10T20:17:13.852Z,12.85
2023-04-10T20:19:17.253Z,15.00
2023-04-10T20:21:24.127Z,13.13
2023-04-10T20:23:28.010Z,10.88
2023-04-10T20:25:31.528Z,10.75
2023-04-10T20:27:35.234Z,12.75
2023-04-10T20:29:40.786Z,13.02
2023-04-10T20:31:44.301Z,10.68
2023-04-10T20:33:47.801Z,9.60
2023-04-10T20:35:51.244Z,6.80
2023-04-10T20:37:54.734Z,8.25
2023-04-10T20:39:58.120Z,8.10
2023-04-10T20:42:01.476Z,8.73
2023-04-10T20:44:05.486Z,9.25
2023-04-10T20:46:10.775Z,10.25
2023-04-10T20:48:14.443Z,9.05
2023-04-10T20:50:18.065Z,9.13
2023-04-10T20:52:21.462Z,9.80
2023-04-10T20:54:26.985Z,8.55
2023-04-10T20:56:40.569Z,8.80
2023-04-10T20:58:46.481Z,9.13
2023-04-10T21:00:53.217Z,9.88
2023-04-10T21:02:58.264Z,11.68
2023-04-10T21:05:01.699Z,10.90
2023-04-10T21:07:05.400Z,11.15
2023-04-10T21:09:08.650Z,10.95
2023-04-10T21:11:12.089Z,10.05
2023-04-10T21:13:16.384Z,10.70
2023-04-10T21:15:19.876Z,11.85
2023-04-10T21:17:24.066Z,11.63
2023-04-10T21:19:28.895Z,9.70
2023-04-10T21:21:32.263Z,10.52
2023-04-10T21:23:35.797Z,8.90
2023-04-10T21:25:40.972Z,10.20
2023-04-10T21:27:44.535Z,10.65
2023-04-10T21:29:48.348Z,8.98
2023-04-10T21:31:52.252Z,8.88
2023-04-10T21:33:55.826Z,9.43
2023-04-10T21:36:00.615Z,8.75
2023-04-10T21:38:04.238Z,8.88
2023-04-10T21:40:09.229Z,8.27
2023-04-10T21:42:12.971Z,10.40
2023-04-10T21:44:16.870Z,8.98
2023-04-10T21:46:20.606Z,9.00
2023-04-10T21:48:24.129Z,8.18
2023-04-10T21:50:27.676Z,8.30
2023-04-10T21:52:33.853Z,10.63
2023-04-10T21:54:37.236Z,9.23
2023-04-10T21:56:41.540Z,9.40
2023-04-10T21:58:45.352Z,8.07
2023-04-10T22:00:50.258Z,9.07
2023-04-10T22:02:53.993Z,9.23
2023-04-10T22:04:57.497Z,7.93
2023-04-10T22:07:01.576Z,8.50
2023-04-10T22:09:07.666Z,8.07
2023-04-10T22:11:11.111Z,8.55
2023-04-10T22:13:27.525Z,8.05
2023-04-10T22:15:34.199Z,7.47
2023-04-10T22:17:38.108Z,8.95
2023-04-10T22:19:41.473Z,8.95
2023-04-10T22:21:45.500Z,9.38
2023-04-10T22:23:48.871Z,8.10
2023-04-10T22:25:53.809Z,7.68
2023-04-10T22:27:57.822Z,8.00
2023-04-10T22:30:03.854Z,8.02
2023-04-10T22:32:07.906Z,7.38
2023-04-10T22:34:11.571Z,7.68
2023-04-10T22:36:15.124Z,8.65
2023-04-10T22:38:22.283Z,9.52
2023-04-10T22:40:25.950Z,8.43
2023-04-10T22:42:31.975Z,8.50
2023-04-10T22:44:35.807Z,8.73
2023-04-10T22:46:39.262Z,7.72
2023-04-10T22:48:43.430Z,8.77
2023-04-10T22:50:47.754Z,7.55
2023-04-10T22:52:51.150Z,7.55
2023-04-10T22:54:54.477Z,7.80
2023-04-10T22:56:58.513Z,7.55
2023-04-10T22:59:03.447Z,8.30
2023-04-10T23:01:08.343Z,7.15
2023-04-10T23:03:11.917Z,8.10
2023-04-10T23:05:15.573Z,7.05
2023-04-10T23:07:18.973Z,7.53
2023-04-10T23:09:22.508Z,7.55
2023-04-10T23:11:26.152Z,8.07
2023-04-10T23:13:29.564Z,6.63
2023-04-10T23:15:34.587Z,7.30
2023-04-10T23:17:38.516Z,6.97
2023-04-10T23:19:42.178Z,6.82
2023-04-10T23:21:46.047Z,6.90
2023-04-10T23:23:49.440Z,7.25
2023-04-10T23:25:59.281Z,7.50
2023-04-10T23:28:03.744Z,7.38
2023-04-10T23:30:08.168Z,7.30
2023-04-10T23:32:12.990Z,7.55
2023-04-10T23:34:16.387Z,8.10
2023-04-10T23:36:19.665Z,8.18
2023-04-10T23:38:26.661Z,7.80
2023-04-10T23:40:29.887Z,7.55
2023-04-10T23:42:33.630Z,8.07
2023-04-10T23:44:37.132Z,6.97
2023-04-10T23:46:40.677Z,8.18
2023-04-10T23:48:45.667Z,7.72
2023-04-10T23:50:49.468Z,8.13
2023-04-10T23:52:53.677Z,8.88
2023-04-10T23:54:57.379Z,7.78
2023-04-10T23:57:01.083Z,6.57
2023-04-10T23:59:04.963Z,8.15
